Goodsoil, Canada
Current Conditions -  °F | °C
As of 6:00 PM on Tuesday 21 Oct 2014 (Local Time) from CYOD Reporting Station
Broken Clouds Broken Clouds  
Wind Chill: 54°   Ceiling: 15000
Heat Index: 54°   Visibility: 15mi
Dew Point: 41°   Wind: 6mph
Humidity: 62%   Direction: 280°W
Pressure: 29.62"   Gusts: NA
Location:  54.4°N, 109.23°W
Report Text: CYOD 220000Z 28005KT 15SM FEW110 BKN150 12/05 A2962 RMK AC1AC6SLP046
Loading
Personal Weather Stations






























Interactive Weather Map
Tropical Storm Tracking
New forecast layout! Learn more

10-Day Weather Forecast

Advertisements
Track Severe Weather on mobile